createdAt,value
2018-04-16T00:01:25.200Z,24.30
2018-04-16T00:03:53.043Z,24.90
2018-04-16T00:06:20.634Z,24.53
2018-04-16T00:08:48.163Z,25.50
2018-04-16T00:11:15.706Z,24.53
2018-04-16T00:13:43.246Z,25.13
2018-04-16T00:16:10.780Z,23.90
2018-04-16T00:18:38.313Z,26.20
2018-04-16T00:21:05.843Z,23.77
2018-04-16T00:23:33.391Z,23.23
2018-04-16T00:26:00.912Z,23.80
2018-04-16T00:28:28.671Z,24.00
2018-04-16T00:30:56.216Z,24.30
2018-04-16T00:33:29.455Z,23.80
2018-04-16T00:36:02.706Z,24.20
2018-04-16T00:41:51.183Z,23.90
2018-04-16T00:44:24.340Z,22.60
2018-04-16T00:46:57.387Z,23.77
2018-04-16T00:49:30.495Z,25.50
2018-04-16T00:52:03.711Z,27.07
2018-04-16T00:54:36.800Z,27.33
2018-04-16T00:57:09.982Z,25.20
2018-04-16T00:59:43.149Z,24.33
2018-04-16T01:02:16.389Z,24.50
2018-04-16T01:04:49.607Z,26.80
2018-04-16T01:07:22.735Z,27.03
2018-04-16T01:09:55.912Z,27.27
2018-04-16T01:12:28.956Z,27.10
2018-04-16T01:15:02.028Z,25.70
2018-04-16T01:17:35.298Z,26.93
2018-04-16T01:20:08.384Z,27.70
2018-04-16T01:22:41.584Z,27.23
2018-04-16T01:25:14.700Z,25.97
2018-04-16T01:27:47.906Z,28.60
2018-04-16T01:30:25.976Z,27.10
2018-04-16T01:32:59.431Z,25.93
2018-04-16T01:35:32.553Z,27.07
2018-04-16T01:38:06.259Z,26.30
2018-04-16T01:40:39.524Z,27.80
2018-04-16T01:43:12.615Z,26.83
2018-04-16T01:45:45.622Z,25.97
2018-04-16T01:48:18.991Z,28.47
2018-04-16T01:50:52.246Z,26.97
2018-04-16T01:53:25.386Z,28.90
2018-04-16T01:55:58.635Z,28.90
2018-04-16T01:58:31.720Z,30.97
2018-04-16T02:01:04.944Z,30.60
2018-04-16T02:03:38.134Z,30.00
2018-04-16T02:06:11.205Z,31.10
2018-04-16T02:08:44.188Z,31.10
2018-04-16T02:11:17.407Z,28.63
2018-04-16T02:16:55.244Z,28.40
2018-04-16T02:19:28.400Z,27.57
2018-04-16T02:22:01.582Z,31.00
2018-04-16T02:24:34.639Z,29.53
2018-04-16T02:27:07.731Z,29.47
2018-04-16T02:29:40.914Z,31.10
2018-04-16T02:32:13.988Z,31.17
2018-04-16T02:34:47.084Z,29.97
2018-04-16T02:37:20.272Z,31.03
2018-04-16T02:39:53.435Z,28.60
2018-04-16T02:42:26.576Z,29.20
2018-04-16T02:44:59.586Z,28.60
2018-04-16T02:47:32.853Z,30.50
2018-04-16T02:50:05.899Z,30.47
2018-04-16T02:52:39.289Z,28.70
2018-04-16T02:58:15.557Z,30.47
2018-04-16T03:03:52.830Z,31.37
2018-04-16T03:06:25.907Z,31.30
2018-04-16T03:08:59.021Z,30.37
2018-04-16T03:11:32.230Z,34.33
2018-04-16T03:14:05.459Z,35.60
2018-04-16T03:16:38.581Z,34.63
2018-04-16T03:19:12.090Z,34.03
2018-04-16T03:21:45.241Z,33.80
2018-04-16T03:24:18.495Z,35.27
2018-04-16T03:26:51.977Z,32.77
2018-04-16T03:29:25.123Z,33.10
2018-04-16T03:31:58.376Z,34.00
2018-04-16T03:34:31.318Z,33.50
2018-04-16T03:37:04.263Z,34.40
2018-04-16T03:39:37.544Z,33.77
2018-04-16T03:42:10.654Z,33.60
2018-04-16T03:44:44.071Z,33.67
2018-04-16T03:47:17.303Z,33.70
2018-04-16T03:49:50.562Z,33.30
2018-04-16T03:52:23.613Z,33.03
2018-04-16T03:57:54.219Z,30.13
2018-04-16T04:00:22.022Z,30.50
2018-04-16T04:02:49.533Z,30.93
2018-04-16T04:05:17.070Z,30.40
2018-04-16T04:07:44.605Z,27.53
2018-04-16T04:10:12.160Z,28.37
2018-04-16T04:12:39.724Z,27.40
2018-04-16T04:15:07.280Z,27.53
2018-04-16T04:17:34.807Z,26.67
2018-04-16T04:20:02.332Z,27.53
2018-04-16T04:22:41.739Z,27.20
2018-04-16T04:25:21.133Z,27.13
2018-04-16T04:28:00.446Z,27.43
2018-04-16T04:30:45.746Z,29.20
2018-04-16T04:33:13.260Z,27.90
2018-04-16T04:35:40.843Z,28.53
2018-04-16T04:38:08.374Z,28.30
2018-04-16T04:40:35.928Z,29.10
2018-04-16T04:43:03.431Z,28.03
2018-04-16T04:45:30.967Z,27.73
2018-04-16T04:47:58.632Z,29.13
2018-04-16T04:50:26.137Z,28.93
2018-04-16T04:52:53.648Z,28.40
2018-04-16T04:55:21.184Z,28.47
2018-04-16T04:57:48.714Z,28.27
2018-04-16T05:00:16.277Z,28.63
2018-04-16T05:02:43.811Z,27.93
2018-04-16T05:05:11.348Z,26.67
2018-04-16T05:07:38.904Z,25.93
2018-04-16T05:10:06.438Z,27.37
2018-04-16T05:12:33.998Z,28.90
2018-04-16T05:15:01.888Z,27.10
2018-04-16T05:17:29.460Z,27.03
2018-04-16T05:19:57.000Z,31.03
2018-04-16T05:22:24.560Z,28.17
2018-04-16T05:24:52.126Z,26.93
2018-04-16T05:27:19.670Z,28.37
2018-04-16T05:29:47.220Z,28.37
2018-04-16T05:32:14.793Z,29.53
2018-04-16T05:34:42.347Z,28.67
2018-04-16T05:37:09.906Z,27.93
2018-04-16T05:39:37.432Z,30.03
2018-04-16T05:42:04.978Z,29.80
2018-04-16T05:44:32.508Z,27.60
2018-04-16T05:47:00.047Z,28.80
2018-04-16T05:49:27.549Z,28.50
2018-04-16T05:51:55.085Z,28.73
2018-04-16T05:54:22.855Z,29.00
2018-04-16T05:56:50.381Z,29.60
2018-04-16T05:59:17.909Z,28.70
2018-04-16T06:01:45.431Z,27.33
2018-04-16T06:04:13.297Z,28.50
2018-04-16T06:06:40.962Z,28.17
2018-04-16T06:09:08.621Z,29.50
2018-04-16T06:11:36.187Z,27.90
2018-04-16T06:14:03.713Z,28.80
2018-04-16T06:16:31.280Z,28.67
2018-04-16T06:18:59.072Z,27.70
2018-04-16T06:21:26.626Z,27.50
2018-04-16T06:23:54.147Z,28.10
2018-04-16T06:26:21.695Z,27.10
2018-04-16T06:28:49.444Z,28.60
2018-04-16T06:31:17.117Z,29.87
2018-04-16T06:33:45.030Z,29.10
2018-04-16T06:36:12.542Z,29.10
2018-04-16T06:38:40.164Z,28.87
2018-04-16T06:41:07.715Z,30.23
2018-04-16T06:43:35.600Z,28.73
2018-04-16T06:46:03.141Z,29.87
2018-04-16T06:48:30.926Z,30.17
2018-04-16T06:50:58.482Z,30.07
2018-04-16T06:53:26.003Z,29.20
2018-04-16T06:55:53.554Z,28.80
2018-04-16T06:58:21.082Z,30.73
2018-04-16T07:00:48.633Z,29.90
2018-04-16T07:03:16.507Z,29.87
2018-04-16T07:05:44.036Z,31.73
2018-04-16T07:08:11.595Z,32.10
2018-04-16T07:10:39.120Z,30.10
2018-04-16T07:13:06.835Z,30.80
2018-04-16T07:15:34.374Z,31.43
2018-04-16T07:18:01.950Z,31.67
2018-04-16T07:20:29.487Z,31.83
2018-04-16T07:22:57.028Z,31.23
2018-04-16T07:25:24.574Z,30.97
2018-04-16T07:27:52.174Z,31.50
2018-04-16T07:30:19.727Z,31.00
2018-04-16T07:32:47.254Z,31.30
2018-04-16T07:35:15.100Z,31.87
2018-04-16T07:37:42.688Z,32.13
2018-04-16T07:40:10.328Z,32.27
2018-04-16T07:42:37.908Z,30.13
2018-04-16T07:45:05.708Z,33.27
2018-04-16T07:47:33.335Z,31.33
2018-04-16T07:50:00.979Z,31.70
2018-04-16T07:52:29.020Z,31.80
2018-04-16T07:54:57.117Z,33.40
2018-04-16T07:57:25.132Z,32.50
2018-04-16T07:59:53.568Z,33.37
2018-04-16T08:02:21.701Z,34.00
2018-04-16T08:04:49.658Z,33.47
2018-04-16T08:07:17.448Z,33.37
2018-04-16T08:09:45.047Z,33.67
2018-04-16T08:12:12.622Z,31.97
2018-04-16T08:14:40.148Z,33.23
2018-04-16T08:17:07.717Z,33.17
2018-04-16T08:19:37.077Z,33.07
2018-04-16T08:22:04.629Z,33.90
2018-04-16T08:24:32.155Z,33.30
2018-04-16T08:26:59.691Z,33.37
2018-04-16T08:29:27.231Z,33.07
2018-04-16T08:31:54.807Z,32.97
2018-04-16T08:34:22.372Z,33.20
2018-04-16T08:36:49.911Z,34.87
2018-04-16T08:39:17.822Z,32.17
2018-04-16T08:41:45.560Z,34.03
2018-04-16T08:44:13.091Z,33.53
2018-04-16T08:46:40.931Z,33.83
2018-04-16T08:49:08.447Z,33.87
2018-04-16T08:51:36.044Z,32.83
2018-04-16T08:54:03.569Z,32.97
2018-04-16T08:56:31.085Z,32.37
2018-04-16T08:58:58.608Z,30.90
2018-04-16T09:01:26.126Z,32.63
2018-04-16T09:03:53.663Z,30.70
2018-04-16T09:06:21.190Z,32.30
2018-04-16T09:08:48.817Z,33.37
2018-04-16T09:11:16.312Z,31.60
2018-04-16T09:13:44.183Z,33.77
2018-04-16T09:16:11.735Z,33.07
2018-04-16T09:18:39.288Z,32.83
2018-04-16T09:21:06.839Z,33.70
2018-04-16T09:23:34.365Z,33.30
2018-04-16T09:26:01.947Z,34.70
2018-04-16T09:28:29.476Z,34.30
2018-04-16T09:30:57.032Z,32.07
2018-04-16T09:33:24.602Z,34.10
2018-04-16T09:35:52.163Z,32.67
2018-04-16T09:38:19.759Z,33.33
2018-04-16T09:40:47.276Z,32.47
2018-04-16T09:43:14.840Z,34.83
2018-04-16T09:45:42.425Z,33.93
2018-04-16T09:48:10.233Z,35.50
2018-04-16T09:50:37.807Z,34.63
2018-04-16T09:53:05.375Z,32.47
2018-04-16T09:55:33.222Z,33.87
2018-04-16T09:58:00.751Z,33.43
2018-04-16T10:00:28.329Z,33.97
2018-04-16T10:02:57.883Z,34.53
2018-04-16T10:05:25.424Z,33.80
2018-04-16T10:07:53.001Z,32.50
2018-04-16T10:10:20.534Z,33.83
2018-04-16T10:12:48.281Z,34.57
2018-04-16T10:15:15.938Z,35.40
2018-04-16T10:17:44.143Z,32.97
2018-04-16T10:20:11.731Z,33.83
2018-04-16T10:22:39.691Z,35.50
2018-04-16T10:25:07.541Z,34.00
2018-04-16T10:27:35.639Z,36.13
2018-04-16T10:30:03.828Z,33.47
2018-04-16T10:32:31.491Z,32.30
2018-04-16T10:34:59.201Z,31.77
2018-04-16T10:37:27.015Z,33.53
2018-04-16T10:39:54.813Z,32.53
2018-04-16T10:42:22.788Z,33.00
2018-04-16T10:44:50.424Z,32.00
2018-04-16T10:47:17.948Z,32.03
2018-04-16T10:49:45.518Z,32.10
2018-04-16T10:52:13.060Z,31.60
2018-04-16T10:54:40.625Z,32.57
2018-04-16T10:57:08.576Z,34.80
2018-04-16T10:59:37.000Z,35.37
2018-04-16T11:02:04.558Z,35.43
2018-04-16T11:04:32.287Z,33.27
2018-04-16T11:06:59.849Z,33.57
2018-04-16T11:09:27.427Z,34.73
2018-04-16T11:11:55.009Z,31.90
2018-04-16T11:14:22.620Z,33.70
2018-04-16T11:16:50.213Z,32.10
2018-04-16T11:19:17.744Z,30.23
2018-04-16T11:21:45.375Z,28.93
2018-04-16T11:24:12.887Z,28.00
2018-04-16T11:26:40.431Z,26.47
2018-04-16T11:29:07.990Z,28.93
2018-04-16T11:31:35.541Z,27.60
2018-04-16T11:34:03.115Z,27.80
2018-04-16T11:36:30.656Z,27.30
2018-04-16T11:38:58.177Z,27.83
2018-04-16T11:41:25.769Z,26.10
2018-04-16T11:43:53.296Z,26.17
2018-04-16T11:46:20.882Z,27.43
2018-04-16T11:48:48.437Z,26.20
2018-04-16T11:51:15.990Z,25.57
2018-04-16T11:53:43.544Z,25.37
2018-04-16T11:56:11.108Z,26.03
2018-04-16T11:58:38.675Z,26.73
2018-04-16T12:01:06.201Z,27.50
2018-04-16T12:03:34.074Z,25.50
2018-04-16T12:06:01.633Z,26.90
2018-04-16T12:08:29.323Z,25.97
2018-04-16T12:10:56.888Z,27.70
2018-04-16T12:13:24.658Z,27.33
2018-04-16T12:15:52.180Z,25.60
2018-04-16T12:18:19.766Z,26.50
2018-04-16T12:20:47.322Z,26.90
2018-04-16T12:23:14.852Z,27.47
2018-04-16T12:25:42.416Z,26.37
2018-04-16T12:28:09.941Z,28.63
2018-04-16T12:30:37.697Z,27.77
2018-04-16T12:33:05.227Z,27.60
2018-04-16T12:35:32.840Z,26.47
2018-04-16T12:38:00.401Z,26.87
2018-04-16T12:40:27.961Z,28.73
2018-04-16T12:42:55.513Z,28.57
2018-04-16T12:45:23.062Z,28.03
2018-04-16T12:47:50.627Z,27.50
2018-04-16T12:50:18.159Z,28.40
2018-04-16T12:52:46.005Z,27.47
2018-04-16T12:55:13.568Z,27.83
2018-04-16T12:57:41.195Z,27.63
2018-04-16T13:00:08.754Z,28.07
2018-04-16T13:02:36.377Z,28.23
2018-04-16T13:05:03.915Z,29.20
2018-04-16T13:07:31.467Z,29.90
2018-04-16T13:09:59.348Z,28.87
2018-04-16T13:12:26.902Z,28.80
2018-04-16T13:14:54.521Z,30.80
2018-04-16T13:17:22.068Z,29.23
2018-04-16T13:19:49.689Z,28.90
2018-04-16T13:22:17.216Z,30.40
2018-04-16T13:24:45.128Z,28.93
2018-04-16T13:27:13.192Z,30.33
2018-04-16T13:29:40.768Z,31.07
2018-04-16T13:32:08.531Z,30.60
2018-04-16T13:34:37.325Z,31.83
2018-04-16T13:37:05.041Z,31.13
2018-04-16T13:39:32.745Z,31.60
2018-04-16T13:42:00.498Z,31.27
2018-04-16T13:44:29.298Z,32.20
2018-04-16T13:46:57.721Z,32.20
2018-04-16T13:49:25.556Z,32.07
2018-04-16T13:51:53.152Z,32.70
2018-04-16T13:54:20.785Z,32.80
2018-04-16T13:56:48.341Z,32.70
2018-04-16T13:59:15.895Z,32.07
2018-04-16T14:01:43.487Z,34.33
2018-04-16T14:04:11.010Z,32.07
2018-04-16T14:06:38.679Z,32.73
2018-04-16T14:09:06.263Z,33.40
2018-04-16T14:11:33.809Z,35.20
2018-04-16T14:14:03.128Z,34.93
2018-04-16T14:16:30.658Z,36.83
2018-04-16T14:18:58.216Z,33.00
2018-04-16T14:21:25.794Z,34.83
2018-04-16T14:23:53.373Z,35.10
2018-04-16T14:26:21.012Z,35.77
2018-04-16T14:28:48.600Z,37.50
2018-04-16T14:31:16.460Z,38.37
2018-04-16T14:33:44.121Z,38.90
2018-04-16T14:36:11.651Z,40.40
2018-04-16T14:38:39.274Z,38.67
2018-04-16T14:41:06.942Z,39.37
2018-04-16T14:43:34.492Z,38.27
2018-04-16T14:46:02.102Z,40.67
2018-04-16T14:48:29.721Z,40.53
2018-04-16T14:50:57.317Z,40.10
2018-04-16T14:53:24.885Z,40.77
2018-04-16T14:55:52.458Z,41.80
2018-04-16T14:58:20.405Z,39.37
2018-04-16T15:00:48.569Z,40.57
2018-04-16T15:03:16.404Z,40.10
2018-04-16T15:05:43.976Z,39.67
2018-04-16T15:08:11.606Z,43.23
2018-04-16T15:10:39.200Z,42.23
2018-04-16T15:13:06.806Z,41.50
2018-04-16T15:15:34.531Z,42.43
2018-04-16T15:18:02.092Z,42.60
2018-04-16T15:20:29.642Z,41.87
2018-04-16T15:22:57.196Z,41.90
2018-04-16T15:25:27.353Z,43.03
2018-04-16T15:27:55.200Z,42.60
2018-04-16T15:30:22.782Z,44.77
2018-04-16T15:32:50.577Z,43.73
2018-04-16T15:35:19.080Z,42.20
2018-04-16T15:37:46.633Z,44.03
2018-04-16T15:40:14.201Z,43.23
2018-04-16T15:42:41.744Z,42.27
2018-04-16T15:45:09.349Z,42.97
2018-04-16T15:47:37.299Z,43.00
2018-04-16T15:50:04.836Z,43.53
2018-04-16T15:52:33.360Z,43.67
2018-04-16T15:55:01.251Z,43.43
2018-04-16T15:57:28.773Z,45.13
2018-04-16T15:59:56.369Z,43.67
2018-04-16T16:02:24.227Z,42.53
2018-04-16T16:04:51.855Z,42.00
2018-04-16T16:07:19.411Z,43.47
2018-04-16T16:09:47.014Z,45.37
2018-04-16T16:12:14.584Z,41.73
2018-04-16T16:14:42.157Z,42.73
2018-04-16T16:17:09.756Z,42.47
2018-04-16T16:19:37.294Z,43.90
2018-04-16T16:22:04.813Z,43.73
2018-04-16T16:24:32.399Z,44.00
2018-04-16T16:26:59.928Z,42.17
2018-04-16T16:29:27.478Z,41.67
2018-04-16T16:31:55.035Z,42.13
2018-04-16T16:34:22.586Z,42.47
2018-04-16T16:36:50.299Z,40.67
2018-04-16T16:39:17.858Z,42.17
2018-04-16T16:41:45.725Z,42.87
2018-04-16T16:44:13.241Z,41.57
2018-04-16T16:46:41.156Z,41.70
2018-04-16T16:49:09.142Z,43.33
2018-04-16T16:51:36.701Z,42.40
2018-04-16T16:54:04.451Z,43.27
2018-04-16T16:56:32.937Z,40.50
2018-04-16T16:59:00.564Z,41.70
2018-04-16T17:01:28.135Z,43.07
2018-04-16T17:03:55.796Z,42.60
2018-04-16T17:06:23.798Z,44.97
2018-04-16T17:08:52.071Z,44.10
2018-04-16T17:11:19.686Z,41.60
2018-04-16T17:13:47.525Z,45.10
2018-04-16T17:16:15.126Z,42.07
2018-04-16T17:18:42.760Z,43.70
2018-04-16T17:21:10.382Z,43.67
2018-04-16T17:23:37.905Z,39.17
2018-04-16T17:26:05.536Z,43.43
2018-04-16T17:28:33.079Z,44.70
2018-04-16T17:31:00.645Z,40.30
2018-04-16T17:33:28.283Z,41.47
2018-04-16T17:35:55.835Z,42.37
2018-04-16T17:38:23.493Z,44.30
2018-04-16T17:40:51.049Z,42.47
2018-04-16T17:43:18.647Z,42.07
2018-04-16T17:45:46.182Z,42.87
2018-04-16T17:48:13.764Z,41.87
2018-04-16T17:50:41.334Z,41.37
2018-04-16T17:53:08.865Z,41.47
2018-04-16T17:55:36.427Z,41.50
2018-04-16T17:58:03.934Z,44.03
2018-04-16T18:00:31.575Z,43.60
2018-04-16T18:02:59.163Z,43.70
2018-04-16T18:05:27.002Z,42.47
2018-04-16T18:07:54.907Z,41.27
2018-04-16T18:10:22.534Z,43.43
2018-04-16T18:12:50.089Z,43.33
2018-04-16T18:15:17.612Z,44.50
2018-04-16T18:17:45.619Z,43.00
2018-04-16T18:20:13.189Z,44.00
2018-04-16T18:22:40.741Z,42.63
2018-04-16T18:25:08.307Z,42.07
2018-04-16T18:27:35.936Z,42.27
2018-04-16T18:30:03.827Z,44.00
2018-04-16T18:32:31.413Z,44.77
2018-04-16T18:34:58.959Z,42.93
2018-04-16T18:37:26.540Z,43.43
2018-04-16T18:39:54.060Z,39.90
2018-04-16T18:42:21.615Z,44.33
2018-04-16T18:44:49.216Z,42.60
2018-04-16T18:47:16.787Z,44.83
2018-04-16T18:49:44.350Z,41.47
2018-04-16T18:52:11.878Z,43.10
2018-04-16T18:54:39.394Z,42.03
2018-04-16T18:57:07.417Z,42.63
2018-04-16T18:59:34.952Z,41.23
2018-04-16T19:02:02.589Z,41.73
2018-04-16T19:04:30.130Z,43.63
2018-04-16T19:06:58.105Z,42.77
2018-04-16T19:09:25.885Z,42.30
2018-04-16T19:11:53.570Z,41.87
2018-04-16T19:14:21.099Z,42.77
2018-04-16T19:16:48.655Z,39.80
2018-04-16T19:19:16.242Z,42.90
2018-04-16T19:21:49.357Z,41.07
2018-04-16T19:24:16.921Z,43.03
2018-04-16T19:26:50.301Z,41.67
2018-04-16T19:29:19.927Z,42.00
2018-04-16T19:31:47.629Z,43.00
2018-04-16T19:34:26.337Z,41.60
2018-04-16T19:36:54.192Z,43.33
2018-04-16T19:39:21.829Z,43.90
2018-04-16T19:41:56.157Z,43.30
2018-04-16T19:44:23.805Z,44.90
2018-04-16T19:46:51.431Z,45.17
2018-04-16T19:49:24.497Z,45.70
2018-04-16T19:51:52.290Z,43.13
2018-04-16T19:54:20.842Z,45.93
2018-04-16T19:59:51.685Z,45.20
2018-04-16T20:02:24.793Z,44.10
2018-04-16T20:04:52.960Z,42.67
2018-04-16T20:07:20.547Z,43.83
2018-04-16T20:09:48.134Z,42.33
2018-04-16T20:12:16.853Z,44.67
2018-04-16T20:14:44.516Z,44.00
2018-04-16T20:17:12.796Z,43.07
2018-04-16T20:19:40.475Z,44.33
2018-04-16T20:22:08.087Z,44.40
2018-04-16T20:24:35.711Z,41.87
2018-04-16T20:27:03.230Z,42.17
2018-04-16T20:29:30.986Z,46.83
2018-04-16T20:31:58.661Z,42.17
2018-04-16T20:34:26.325Z,43.50
2018-04-16T20:36:54.108Z,41.90
2018-04-16T20:39:23.107Z,42.80
2018-04-16T20:41:50.895Z,42.53
2018-04-16T20:44:18.458Z,44.23
2018-04-16T20:46:46.013Z,43.87
2018-04-16T20:49:13.636Z,43.67
2018-04-16T20:51:41.223Z,42.97
2018-04-16T20:54:08.820Z,44.10
2018-04-16T20:56:36.747Z,44.70
2018-04-16T20:59:04.476Z,45.40
2018-04-16T21:01:32.334Z,45.37
2018-04-16T21:04:00.462Z,45.03
2018-04-16T21:06:31.136Z,43.17
2018-04-16T21:08:59.438Z,46.40
2018-04-16T21:11:27.028Z,44.83
2018-04-16T21:13:55.056Z,43.37
2018-04-16T21:16:22.604Z,46.27
2018-04-16T21:18:50.258Z,44.27
2018-04-16T21:21:19.966Z,45.47
2018-04-16T21:23:52.324Z,44.97
2018-04-16T21:26:22.515Z,47.10
2018-04-16T21:28:50.350Z,44.20
2018-04-16T21:31:18.271Z,45.23
2018-04-16T21:33:45.795Z,45.90
2018-04-16T21:36:13.439Z,44.13
2018-04-16T21:38:40.971Z,43.70
2018-04-16T21:41:08.569Z,46.17
2018-04-16T21:43:39.583Z,45.90
2018-04-16T21:46:09.207Z,46.57
2018-04-16T21:48:36.811Z,45.60
2018-04-16T21:51:04.524Z,46.27
2018-04-16T21:53:32.374Z,48.23
2018-04-16T21:56:00.580Z,46.47
2018-04-16T21:58:28.209Z,46.53
2018-04-16T22:00:55.844Z,47.03
2018-04-16T22:03:23.478Z,44.97
2018-04-16T22:05:51.236Z,47.17
2018-04-16T22:08:19.835Z,45.87
2018-04-16T22:10:49.441Z,49.10
2018-04-16T22:13:16.986Z,46.17
2018-04-16T22:15:45.203Z,45.63
2018-04-16T22:18:13.439Z,46.97
2018-04-16T22:20:41.386Z,46.03
2018-04-16T22:23:08.949Z,48.93
2018-04-16T22:25:36.485Z,50.17
2018-04-16T22:28:04.014Z,47.17
2018-04-16T22:30:32.453Z,49.90
2018-04-16T22:33:00.017Z,47.63
2018-04-16T22:35:27.541Z,47.40
2018-04-16T22:37:55.876Z,47.20
2018-04-16T22:40:23.428Z,48.97
2018-04-16T22:42:51.077Z,49.93
2018-04-16T22:45:18.646Z,45.67
2018-04-16T22:47:46.471Z,48.70
2018-04-16T22:50:14.000Z,50.57
2018-04-16T22:52:41.561Z,47.03
2018-04-16T22:55:09.120Z,47.30
2018-04-16T22:57:36.642Z,49.93
2018-04-16T23:00:04.473Z,45.77
2018-04-16T23:02:32.052Z,46.47
2018-04-16T23:04:59.594Z,47.53
2018-04-16T23:07:27.133Z,47.60
2018-04-16T23:09:54.637Z,46.80
2018-04-16T23:12:22.171Z,48.30
2018-04-16T23:14:49.726Z,48.37
2018-04-16T23:17:17.257Z,46.97
2018-04-16T23:19:44.846Z,48.57
2018-04-16T23:22:15.178Z,47.90
2018-04-16T23:24:42.752Z,51.20
2018-04-16T23:27:10.617Z,50.13
2018-04-16T23:29:38.600Z,47.57
2018-04-16T23:32:06.129Z,48.80
2018-04-16T23:34:33.964Z,47.90
2018-04-16T23:37:01.511Z,48.10
2018-04-16T23:39:29.334Z,48.30
2018-04-16T23:41:56.852Z,46.40
2018-04-16T23:44:24.408Z,45.07
2018-04-16T23:46:51.948Z,45.93
2018-04-16T23:49:19.481Z,46.97
2018-04-16T23:51:47.045Z,45.27
2018-04-16T23:54:14.577Z,47.77
2018-04-16T23:56:42.900Z,43.40
2018-04-16T23:59:10.482Z,45.10
